sensor_id;sensor_type;location;lat;lon;timestamp;pressure;altitude;pressure_sealevel;temperature;humidity
44839;BME280;30576;42.098;24.876;2023-02-07T00:00:51;101344.19;;;-0.25;55.26
44839;BME280;30576;42.098;24.876;2023-02-07T00:03:16;101359.34;;;-0.33;55.62
44839;BME280;30576;42.098;24.876;2023-02-07T00:05:42;101362.19;;;-0.28;55.60
44839;BME280;30576;42.098;24.876;2023-02-07T00:08:07;101361.50;;;-0.41;55.21
44839;BME280;30576;42.098;24.876;2023-02-07T00:10:33;101369.84;;;-0.46;55.25
44839;BME280;30576;42.098;24.876;2023-02-07T00:12:58;101373.78;;;-0.53;55.22
44839;BME280;30576;42.098;24.876;2023-02-07T00:15:23;101389.00;;;-1.19;57.36
44839;BME280;30576;42.098;24.876;2023-02-07T00:17:49;101388.03;;;-1.06;57.04
44839;BME280;30576;42.098;24.876;2023-02-07T00:20:14;101388.75;;;-0.94;56.37
44839;BME280;30576;42.098;24.876;2023-02-07T00:22:41;101390.16;;;-0.84;56.20
44839;BME280;30576;42.098;24.876;2023-02-07T00:25:07;101388.28;;;-0.57;54.75
44839;BME280;30576;42.098;24.876;2023-02-07T00:27:32;101394.06;;;-0.31;54.36
44839;BME280;30576;42.098;24.876;2023-02-07T00:29:57;101395.47;;;-0.36;55.13
44839;BME280;30576;42.098;24.876;2023-02-07T00:32:23;101397.16;;;-0.68;55.85
44839;BME280;30576;42.098;24.876;2023-02-07T00:34:48;101396.41;;;-0.65;55.84
44839;BME280;30576;42.098;24.876;2023-02-07T00:37:14;101397.94;;;-0.54;56.26
44839;BME280;30576;42.098;24.876;2023-02-07T00:39:40;101395.69;;;-0.48;56.59
44839;BME280;30576;42.098;24.876;2023-02-07T00:42:05;101398.50;;;-0.28;56.71
44839;BME280;30576;42.098;24.876;2023-02-07T00:44:30;101396.91;;;-0.26;56.88
44839;BME280;30576;42.098;24.876;2023-02-07T00:46:57;101396.16;;;-0.24;55.04
44839;BME280;30576;42.098;24.876;2023-02-07T00:49:22;101397.53;;;-0.30;54.93
44839;BME280;30576;42.098;24.876;2023-02-07T00:51:47;101397.44;;;-0.32;55.58
44839;BME280;30576;42.098;24.876;2023-02-07T00:54:13;101386.22;;;-0.16;56.62
44839;BME280;30576;42.098;24.876;2023-02-07T00:56:40;101391.75;;;-0.10;55.47
44839;BME280;30576;42.098;24.876;2023-02-07T00:59:06;101390.94;;;-0.09;55.58
44839;BME280;30576;42.098;24.876;2023-02-07T01:01:31;101393.63;;;-0.07;55.96
44839;BME280;30576;42.098;24.876;2023-02-07T01:03:56;101388.69;;;-0.03;55.72
44839;BME280;30576;42.098;24.876;2023-02-07T01:06:22;101393.00;;;-0.03;55.60
44839;BME280;30576;42.098;24.876;2023-02-07T01:08:47;101390.53;;;-0.31;56.23
44839;BME280;30576;42.098;24.876;2023-02-07T01:11:13;101377.56;;;-0.31;56.85
44839;BME280;30576;42.098;24.876;2023-02-07T01:13:40;101387.31;;;-0.59;57.26
44839;BME280;30576;42.098;24.876;2023-02-07T01:18:57;101382.34;;;-0.39;57.26
44839;BME280;30576;42.098;24.876;2023-02-07T01:21:23;101392.06;;;-0.66;58.30
44839;BME280;30576;42.098;24.876;2023-02-07T01:23:56;101388.63;;;-0.65;59.27
44839;BME280;30576;42.098;24.876;2023-02-07T01:26:23;101380.75;;;-0.67;59.23
44839;BME280;30576;42.098;24.876;2023-02-07T01:28:48;101382.75;;;-0.63;59.19
44839;BME280;30576;42.098;24.876;2023-02-07T01:31:14;101385.69;;;-0.57;59.08
44839;BME280;30576;42.098;24.876;2023-02-07T01:33:39;101384.25;;;-1.26;60.34
44839;BME280;30576;42.098;24.876;2023-02-07T01:36:09;101379.09;;;-1.11;58.59
44839;BME280;30576;42.098;24.876;2023-02-07T01:38:34;101380.78;;;-1.12;59.01
44839;BME280;30576;42.098;24.876;2023-02-07T01:41:00;101378.09;;;-0.98;58.91
44839;BME280;30576;42.098;24.876;2023-02-07T01:43:25;101375.31;;;-0.57;57.78
44839;BME280;30576;42.098;24.876;2023-02-07T01:45:50;101378.88;;;-0.55;57.24
44839;BME280;30576;42.098;24.876;2023-02-07T01:48:19;101379.75;;;-0.39;57.24
44839;BME280;30576;42.098;24.876;2023-02-07T01:50:46;101371.34;;;-0.35;56.50
44839;BME280;30576;42.098;24.876;2023-02-07T01:53:12;101375.03;;;-0.46;56.54
44839;BME280;30576;42.098;24.876;2023-02-07T01:55:38;101375.50;;;-0.53;56.46
44839;BME280;30576;42.098;24.876;2023-02-07T01:58:05;101368.56;;;-0.38;56.38
44839;BME280;30576;42.098;24.876;2023-02-07T02:00:31;101379.72;;;-0.70;54.03
44839;BME280;30576;42.098;24.876;2023-02-07T02:02:56;101382.91;;;-1.63;58.32
44839;BME280;30576;42.098;24.876;2023-02-07T02:05:22;101379.03;;;-1.56;59.46
44839;BME280;30576;42.098;24.876;2023-02-07T02:07:48;101377.47;;;-1.09;59.37
44839;BME280;30576;42.098;24.876;2023-02-07T02:10:15;101369.44;;;-0.99;58.63
44839;BME280;30576;42.098;24.876;2023-02-07T02:18:40;101374.47;;;-1.02;59.48
44839;BME280;30576;42.098;24.876;2023-02-07T02:23:40;101381.94;;;-0.92;57.75
44839;BME280;30576;42.098;24.876;2023-02-07T02:36:29;101378.34;;;-0.49;56.73
44839;BME280;30576;42.098;24.876;2023-02-07T02:41:46;101389.91;;;-0.27;56.20
44839;BME280;30576;42.098;24.876;2023-02-07T02:44:19;101377.63;;;-0.46;56.64
44839;BME280;30576;42.098;24.876;2023-02-07T02:46:51;101379.97;;;-0.51;58.01
44839;BME280;30576;42.098;24.876;2023-02-07T02:49:18;101378.16;;;-0.37;58.22
44839;BME280;30576;42.098;24.876;2023-02-07T02:51:43;101382.28;;;-0.09;56.43
44839;BME280;30576;42.098;24.876;2023-02-07T02:54:28;101368.19;;;-0.29;57.32
44839;BME280;30576;42.098;24.876;2023-02-07T03:12:36;101373.06;;;-0.19;57.27
44839;BME280;30576;42.098;24.876;2023-02-07T03:20:30;101379.34;;;-0.92;60.18
44839;BME280;30576;42.098;24.876;2023-02-07T03:22:57;101385.00;;;-0.99;60.91
44839;BME280;30576;42.098;24.876;2023-02-07T03:25:25;101384.09;;;-1.14;61.30
44839;BME280;30576;42.098;24.876;2023-02-07T03:27:52;101379.09;;;-1.11;61.14
44839;BME280;30576;42.098;24.876;2023-02-07T03:30:19;101383.19;;;-1.00;60.79
44839;BME280;30576;42.098;24.876;2023-02-07T03:32:49;101383.38;;;-0.97;60.66
44839;BME280;30576;42.098;24.876;2023-02-07T03:35:23;101377.75;;;-0.89;60.78
44839;BME280;30576;42.098;24.876;2023-02-07T03:37:50;101387.13;;;-1.06;61.83
44839;BME280;30576;42.098;24.876;2023-02-07T03:40:17;101383.91;;;-1.02;61.80
44839;BME280;30576;42.098;24.876;2023-02-07T03:42:48;101382.22;;;-1.02;61.43
44839;BME280;30576;42.098;24.876;2023-02-07T03:45:15;101377.50;;;-0.94;61.05
44839;BME280;30576;42.098;24.876;2023-02-07T03:47:42;101381.94;;;-0.77;61.28
44839;BME280;30576;42.098;24.876;2023-02-07T03:50:07;101374.25;;;-0.75;61.45
44839;BME280;30576;42.098;24.876;2023-02-07T03:52:33;101374.25;;;-0.60;61.10
44839;BME280;30576;42.098;24.876;2023-02-07T03:54:58;101376.53;;;-0.50;61.08
44839;BME280;30576;42.098;24.876;2023-02-07T03:57:23;101369.19;;;-0.42;60.87
44839;BME280;30576;42.098;24.876;2023-02-07T03:59:48;101376.25;;;-0.40;60.60
44839;BME280;30576;42.098;24.876;2023-02-07T04:02:14;101375.91;;;-0.31;60.79
44839;BME280;30576;42.098;24.876;2023-02-07T04:04:39;101372.28;;;-0.18;59.75
44839;BME280;30576;42.098;24.876;2023-02-07T04:07:10;101373.06;;;-0.19;59.84
44839;BME280;30576;42.098;24.876;2023-02-07T04:09:41;101380.25;;;-0.30;60.00
44839;BME280;30576;42.098;24.876;2023-02-07T04:12:06;101382.31;;;-0.24;59.99
44839;BME280;30576;42.098;24.876;2023-02-07T04:14:32;101382.69;;;-0.02;59.05
44839;BME280;30576;42.098;24.876;2023-02-07T04:16:57;101383.88;;;-0.11;59.51
44839;BME280;30576;42.098;24.876;2023-02-07T04:19:22;101385.59;;;0.05;59.54
44839;BME280;30576;42.098;24.876;2023-02-07T04:21:48;101389.75;;;0.01;59.72
44839;BME280;30576;42.098;24.876;2023-02-07T04:24:13;101393.78;;;-0.04;60.01
44839;BME280;30576;42.098;24.876;2023-02-07T04:26:41;101399.00;;;0.12;59.89
44839;BME280;30576;42.098;24.876;2023-02-07T04:29:08;101399.56;;;0.07;59.66
44839;BME280;30576;42.098;24.876;2023-02-07T04:31:34;101399.06;;;-0.03;59.57
44839;BME280;30576;42.098;24.876;2023-02-07T04:33:59;101405.97;;;-0.03;59.78
44839;BME280;30576;42.098;24.876;2023-02-07T04:36:24;101406.69;;;-0.37;60.27
44839;BME280;30576;42.098;24.876;2023-02-07T04:38:50;101408.41;;;-0.21;60.64
44839;BME280;30576;42.098;24.876;2023-02-07T04:41:15;101414.50;;;-0.21;60.47
44839;BME280;30576;42.098;24.876;2023-02-07T04:43:40;101419.09;;;0.00;59.80
44839;BME280;30576;42.098;24.876;2023-02-07T04:46:06;101420.69;;;-0.02;59.49
44839;BME280;30576;42.098;24.876;2023-02-07T04:48:32;101417.06;;;0.11;59.09
44839;BME280;30576;42.098;24.876;2023-02-07T04:50:58;101418.06;;;0.13;59.33
44839;BME280;30576;42.098;24.876;2023-02-07T04:53:25;101421.81;;;0.18;59.22
44839;BME280;30576;42.098;24.876;2023-02-07T04:55:51;101423.00;;;0.08;59.38
44839;BME280;30576;42.098;24.876;2023-02-07T04:58:17;101427.94;;;0.04;59.90
44839;BME280;30576;42.098;24.876;2023-02-07T05:00:42;101433.31;;;0.07;59.68
44839;BME280;30576;42.098;24.876;2023-02-07T05:03:08;101437.75;;;0.09;59.72
44839;BME280;30576;42.098;24.876;2023-02-07T05:05:33;101435.47;;;-0.01;59.51
44839;BME280;30576;42.098;24.876;2023-02-07T05:08:01;101438.28;;;-0.13;59.90
44839;BME280;30576;42.098;24.876;2023-02-07T05:10:27;101439.91;;;-0.15;59.77
44839;BME280;30576;42.098;24.876;2023-02-07T05:12:52;101440.16;;;-0.10;59.05
44839;BME280;30576;42.098;24.876;2023-02-07T05:15:17;101442.75;;;-0.10;59.15
44839;BME280;30576;42.098;24.876;2023-02-07T05:17:42;101454.66;;;-0.14;59.35
44839;BME280;30576;42.098;24.876;2023-02-07T05:20:08;101431.94;;;-0.18;58.83
44839;BME280;30576;42.098;24.876;2023-02-07T05:22:33;101449.91;;;-0.06;58.97
44839;BME280;30576;42.098;24.876;2023-02-07T05:24:59;101449.84;;;-0.23;59.78
44839;BME280;30576;42.098;24.876;2023-02-07T05:27:24;101443.34;;;-0.31;60.21
44839;BME280;30576;42.098;24.876;2023-02-07T05:29:49;101447.13;;;-0.09;59.97
44839;BME280;30576;42.098;24.876;2023-02-07T05:32:15;101446.97;;;-0.12;60.22
44839;BME280;30576;42.098;24.876;2023-02-07T05:34:59;101450.25;;;0.00;60.43
44839;BME280;30576;42.098;24.876;2023-02-07T05:37:24;101451.94;;;-0.01;59.95
44839;BME280;30576;42.098;24.876;2023-02-07T05:39:50;101455.28;;;0.13;59.81
44839;BME280;30576;42.098;24.876;2023-02-07T05:42:15;101452.22;;;0.21;59.56
44839;BME280;30576;42.098;24.876;2023-02-07T05:44:40;101455.78;;;0.23;59.30
44839;BME280;30576;42.098;24.876;2023-02-07T05:47:06;101465.13;;;0.35;59.12
44839;BME280;30576;42.098;24.876;2023-02-07T05:49:31;101469.53;;;0.37;58.79
44839;BME280;30576;42.098;24.876;2023-02-07T05:51:56;101468.31;;;0.30;58.95
44839;BME280;30576;42.098;24.876;2023-02-07T05:54:22;101468.16;;;0.27;58.70
44839;BME280;30576;42.098;24.876;2023-02-07T05:56:47;101472.22;;;0.38;58.53
44839;BME280;30576;42.098;24.876;2023-02-07T05:59:12;101476.94;;;0.45;58.38
44839;BME280;30576;42.098;24.876;2023-02-07T06:01:37;101478.03;;;0.34;58.12
44839;BME280;30576;42.098;24.876;2023-02-07T06:04:03;101489.19;;;0.16;58.67
44839;BME280;30576;42.098;24.876;2023-02-07T06:06:28;101489.25;;;0.33;58.03
44839;BME280;30576;42.098;24.876;2023-02-07T06:08:53;101484.81;;;0.47;58.03
44839;BME280;30576;42.098;24.876;2023-02-07T06:11:19;101490.91;;;0.64;57.85
44839;BME280;30576;42.098;24.876;2023-02-07T06:13:44;101490.38;;;0.38;59.35
44839;BME280;30576;42.098;24.876;2023-02-07T06:16:09;101489.97;;;0.30;59.96
44839;BME280;30576;42.098;24.876;2023-02-07T06:18:35;101490.25;;;0.51;59.70
44839;BME280;30576;42.098;24.876;2023-02-07T06:21:00;101487.16;;;0.42;59.83
44839;BME280;30576;42.098;24.876;2023-02-07T06:23:26;101489.94;;;0.45;59.19
44839;BME280;30576;42.098;24.876;2023-02-07T06:25:51;101490.84;;;0.31;58.97
44839;BME280;30576;42.098;24.876;2023-02-07T06:28:16;101488.28;;;0.47;59.04
44839;BME280;30576;42.098;24.876;2023-02-07T06:30:42;101497.81;;;0.63;58.38
44839;BME280;30576;42.098;24.876;2023-02-07T06:33:07;101496.50;;;0.88;57.44
44839;BME280;30576;42.098;24.876;2023-02-07T06:35:32;101499.28;;;0.58;58.55
44839;BME280;30576;42.098;24.876;2023-02-07T06:37:58;101492.44;;;0.60;58.81
44839;BME280;30576;42.098;24.876;2023-02-07T06:40:23;101502.31;;;0.82;58.45
44839;BME280;30576;42.098;24.876;2023-02-07T06:42:48;101504.91;;;0.82;58.36
44839;BME280;30576;42.098;24.876;2023-02-07T06:45:13;101505.22;;;0.88;57.93
44839;BME280;30576;42.098;24.876;2023-02-07T06:47:39;101511.88;;;1.00;58.46
44839;BME280;30576;42.098;24.876;2023-02-07T06:50:04;101511.47;;;1.09;57.83
44839;BME280;30576;42.098;24.876;2023-02-07T06:52:30;101507.88;;;1.23;57.34
44839;BME280;30576;42.098;24.876;2023-02-07T06:54:55;101505.75;;;1.32;57.57
44839;BME280;30576;42.098;24.876;2023-02-07T06:57:20;101509.25;;;1.33;57.46
44839;BME280;30576;42.098;24.876;2023-02-07T06:59:46;101511.59;;;1.28;56.78
44839;BME280;30576;42.098;24.876;2023-02-07T07:02:11;101514.91;;;1.42;55.83
44839;BME280;30576;42.098;24.876;2023-02-07T07:04:37;101505.84;;;1.34;55.07
44839;BME280;30576;42.098;24.876;2023-02-07T07:07:02;101503.53;;;1.40;55.03
44839;BME280;30576;42.098;24.876;2023-02-07T07:09:27;101510.09;;;1.50;54.88
44839;BME280;30576;42.098;24.876;2023-02-07T07:11:53;101514.91;;;1.42;55.17
44839;BME280;30576;42.098;24.876;2023-02-07T07:14:18;101507.16;;;1.25;55.54
44839;BME280;30576;42.098;24.876;2023-02-07T07:16:43;101512.84;;;1.53;55.86
44839;BME280;30576;42.098;24.876;2023-02-07T07:19:09;101504.63;;;1.61;54.65
44839;BME280;30576;42.098;24.876;2023-02-07T07:21:34;101503.31;;;1.88;54.50
44839;BME280;30576;42.098;24.876;2023-02-07T07:23:59;101505.88;;;1.52;54.90
44839;BME280;30576;42.098;24.876;2023-02-07T07:26:25;101503.75;;;1.79;55.31
44839;BME280;30576;42.098;24.876;2023-02-07T07:28:50;101501.84;;;1.75;52.17
44839;BME280;30576;42.098;24.876;2023-02-07T07:31:15;101500.28;;;1.96;50.02
44839;BME280;30576;42.098;24.876;2023-02-07T07:33:41;101496.72;;;2.30;48.70
44839;BME280;30576;42.098;24.876;2023-02-07T07:36:06;101499.16;;;2.09;48.54
44839;BME280;30576;42.098;24.876;2023-02-07T07:38:32;101494.75;;;2.26;48.10
44839;BME280;30576;42.098;24.876;2023-02-07T07:40:58;101497.59;;;2.13;47.94
44839;BME280;30576;42.098;24.876;2023-02-07T07:43:23;101480.88;;;2.08;48.30
44839;BME280;30576;42.098;24.876;2023-02-07T07:45:53;101501.09;;;2.13;49.00
44839;BME280;30576;42.098;24.876;2023-02-07T07:48:19;101494.75;;;2.44;47.94
44839;BME280;30576;42.098;24.876;2023-02-07T07:50:44;101494.41;;;2.01;49.28
44839;BME280;30576;42.098;24.876;2023-02-07T07:53:09;101498.38;;;2.10;48.85
44839;BME280;30576;42.098;24.876;2023-02-07T07:55:34;101495.00;;;1.95;48.65
44839;BME280;30576;42.098;24.876;2023-02-07T07:58:00;101493.25;;;2.31;47.93
44839;BME280;30576;42.098;24.876;2023-02-07T08:00:25;101494.91;;;2.67;49.13
44839;BME280;30576;42.098;24.876;2023-02-07T08:02:51;101496.50;;;2.83;49.58
44839;BME280;30576;42.098;24.876;2023-02-07T08:05:16;101502.28;;;2.95;49.15
44839;BME280;30576;42.098;24.876;2023-02-07T08:07:41;101491.06;;;3.17;48.17
44839;BME280;30576;42.098;24.876;2023-02-07T08:10:07;101490.81;;;3.11;46.99
44839;BME280;30576;42.098;24.876;2023-02-07T08:12:32;101492.25;;;3.04;48.71
44839;BME280;30576;42.098;24.876;2023-02-07T08:14:57;101487.34;;;3.32;47.39
44839;BME280;30576;42.098;24.876;2023-02-07T08:17:23;101492.22;;;3.24;45.74
44839;BME280;30576;42.098;24.876;2023-02-07T08:19:48;101486.59;;;3.34;45.73
44839;BME280;30576;42.098;24.876;2023-02-07T08:22:15;101482.41;;;3.59;44.56
44839;BME280;30576;42.098;24.876;2023-02-07T08:24:40;101484.28;;;3.62;43.25
44839;BME280;30576;42.098;24.876;2023-02-07T08:27:06;101481.75;;;3.86;43.29
44839;BME280;30576;42.098;24.876;2023-02-07T08:29:32;101478.59;;;3.93;42.53
44839;BME280;30576;42.098;24.876;2023-02-07T08:31:57;101479.69;;;3.77;43.78
44839;BME280;30576;42.098;24.876;2023-02-07T08:34:23;101474.28;;;3.72;44.03
44839;BME280;30576;42.098;24.876;2023-02-07T08:36:50;101473.63;;;3.78;42.58
44839;BME280;30576;42.098;24.876;2023-02-07T08:39:15;101465.31;;;4.09;41.51
44839;BME280;30576;42.098;24.876;2023-02-07T08:41:41;101467.69;;;4.03;41.01
44839;BME280;30576;42.098;24.876;2023-02-07T08:44:06;101466.31;;;4.13;42.40
44839;BME280;30576;42.098;24.876;2023-02-07T08:46:31;101471.06;;;4.01;42.24
44839;BME280;30576;42.098;24.876;2023-02-07T08:48:57;101469.47;;;3.41;41.66
44839;BME280;30576;42.098;24.876;2023-02-07T08:51:22;101470.63;;;2.68;42.69
44839;BME280;30576;42.098;24.876;2023-02-07T08:53:47;101464.06;;;3.36;42.40
44839;BME280;30576;42.098;24.876;2023-02-07T08:56:13;101469.47;;;3.41;41.10
44839;BME280;30576;42.098;24.876;2023-02-07T08:58:38;101460.97;;;3.04;41.69
44839;BME280;30576;42.098;24.876;2023-02-07T09:01:04;101465.00;;;3.17;42.16
44839;BME280;30576;42.098;24.876;2023-02-07T09:03:34;101469.69;;;2.28;42.91
44839;BME280;30576;42.098;24.876;2023-02-07T09:06:00;101469.44;;;2.04;43.85
44839;BME280;30576;42.098;24.876;2023-02-07T09:08:25;101470.81;;;2.15;43.69
44839;BME280;30576;42.098;24.876;2023-02-07T09:10:51;101468.38;;;2.76;44.65
44839;BME280;30576;42.098;24.876;2023-02-07T09:13:16;101465.19;;;3.22;42.29
44839;BME280;30576;42.098;24.876;2023-02-07T09:15:41;101450.31;;;3.40;43.81
44839;BME280;30576;42.098;24.876;2023-02-07T09:18:07;101453.22;;;3.27;41.65
44839;BME280;30576;42.098;24.876;2023-02-07T09:20:32;101449.91;;;3.10;43.11
44839;BME280;30576;42.098;24.876;2023-02-07T09:22:57;101450.91;;;3.54;43.30
44839;BME280;30576;42.098;24.876;2023-02-07T09:25:41;101447.16;;;3.48;41.85
44839;BME280;30576;42.098;24.876;2023-02-07T09:28:06;101442.34;;;3.80;41.43
44839;BME280;30576;42.098;24.876;2023-02-07T09:30:32;101436.31;;;3.81;41.73
44839;BME280;30576;42.098;24.876;2023-02-07T09:32:57;101442.44;;;3.60;40.18
44839;BME280;30576;42.098;24.876;2023-02-07T09:35:22;101434.34;;;3.75;39.07
44839;BME280;30576;42.098;24.876;2023-02-07T09:37:48;101439.53;;;3.12;39.62
44839;BME280;30576;42.098;24.876;2023-02-07T09:40:16;101430.47;;;3.23;39.22
44839;BME280;30576;42.098;24.876;2023-02-07T09:43:09;101428.69;;;2.81;38.42
44839;BME280;30576;42.098;24.876;2023-02-07T09:45:39;101423.94;;;2.53;36.99
44839;BME280;30576;42.098;24.876;2023-02-07T09:48:09;101422.06;;;2.90;37.27
44839;BME280;30576;42.098;24.876;2023-02-07T09:50:40;101411.75;;;3.12;35.32
44839;BME280;30576;42.098;24.876;2023-02-07T09:53:11;101419.63;;;2.54;35.66
44839;BME280;30576;42.098;24.876;2023-02-07T09:55:43;101411.03;;;2.37;36.25
44839;BME280;30576;42.098;24.876;2023-02-07T09:58:19;101402.88;;;2.29;36.92
44839;BME280;30576;42.098;24.876;2023-02-07T10:00:49;101402.94;;;2.30;35.38
44839;BME280;30576;42.098;24.876;2023-02-07T10:03:20;101391.19;;;2.21;36.91
44839;BME280;30576;42.098;24.876;2023-02-07T10:05:51;101399.34;;;2.09;36.60
44839;BME280;30576;42.098;24.876;2023-02-07T10:08:18;101393.03;;;2.41;36.12
44839;BME280;30576;42.098;24.876;2023-02-07T10:13:28;101385.44;;;2.86;34.89
44839;BME280;30576;42.098;24.876;2023-02-07T10:29:24;101373.22;;;2.85;33.93
44839;BME280;30576;42.098;24.876;2023-02-07T10:31:52;101349.69;;;2.84;35.47
44839;BME280;30576;42.098;24.876;2023-02-07T10:34:27;101365.75;;;2.93;35.13
44839;BME280;30576;42.098;24.876;2023-02-07T10:36:55;101364.09;;;2.95;34.41
44839;BME280;30576;42.098;24.876;2023-02-07T10:41:52;101358.81;;;2.94;35.18
44839;BME280;30576;42.098;24.876;2023-02-07T10:44:21;101355.88;;;3.07;35.59
44839;BME280;30576;42.098;24.876;2023-02-07T10:46:49;101355.34;;;3.35;34.05
44839;BME280;30576;42.098;24.876;2023-02-07T10:49:23;101351.09;;;3.83;34.44
44839;BME280;30576;42.098;24.876;2023-02-07T10:51:49;101351.00;;;3.57;34.45
44839;BME280;30576;42.098;24.876;2023-02-07T10:54:17;101352.91;;;3.40;35.01
44839;BME280;30576;42.098;24.876;2023-02-07T10:56:48;101342.75;;;3.25;35.91
44839;BME280;30576;42.098;24.876;2023-02-07T11:01:55;101340.13;;;3.46;34.45
44839;BME280;30576;42.098;24.876;2023-02-07T11:04:21;101337.50;;;3.69;35.07
44839;BME280;30576;42.098;24.876;2023-02-07T11:06:47;101338.53;;;3.72;34.54
44839;BME280;30576;42.098;24.876;2023-02-07T11:09:23;101335.59;;;3.42;33.42
44839;BME280;30576;42.098;24.876;2023-02-07T11:11:49;101339.69;;;3.14;33.60
44839;BME280;30576;42.098;24.876;2023-02-07T11:14:16;101338.97;;;3.39;33.33
44839;BME280;30576;42.098;24.876;2023-02-07T11:16:45;101340.72;;;3.84;35.24
44839;BME280;30576;42.098;24.876;2023-02-07T11:19:15;101326.47;;;4.45;34.62
44839;BME280;30576;42.098;24.876;2023-02-07T11:21:42;101318.53;;;4.94;32.25
44839;BME280;30576;42.098;24.876;2023-02-07T11:24:12;101320.13;;;4.39;32.50
44839;BME280;30576;42.098;24.876;2023-02-07T11:29:15;101308.72;;;4.12;33.12
44839;BME280;30576;42.098;24.876;2023-02-07T11:31:42;101311.06;;;4.05;32.88
44839;BME280;30576;42.098;24.876;2023-02-07T11:34:30;101314.72;;;3.87;32.36
44839;BME280;30576;42.098;24.876;2023-02-07T11:36:54;101307.22;;;3.72;31.70
44839;BME280;30576;42.098;24.876;2023-02-07T11:39:31;101299.16;;;3.66;32.67
44839;BME280;30576;42.098;24.876;2023-02-07T11:41:58;101310.53;;;3.68;32.54
44839;BME280;30576;42.098;24.876;2023-02-07T11:44:24;101300.06;;;3.23;31.68
44839;BME280;30576;42.098;24.876;2023-02-07T11:46:49;101290.94;;;3.34;31.84
44839;BME280;30576;42.098;24.876;2023-02-07T11:49:25;101293.88;;;3.65;31.22
44839;BME280;30576;42.098;24.876;2023-02-07T11:51:52;101285.66;;;4.01;30.81
44839;BME280;30576;42.098;24.876;2023-02-07T11:54:19;101281.72;;;4.36;32.14
44839;BME280;30576;42.098;24.876;2023-02-07T11:56:48;101286.03;;;4.11;30.16
44839;BME280;30576;42.098;24.876;2023-02-07T11:59:15;101273.81;;;3.86;29.95
44839;BME280;30576;42.098;24.876;2023-02-07T12:01:42;101277.75;;;3.99;31.67
44839;BME280;30576;42.098;24.876;2023-02-07T12:04:16;101274.16;;;3.96;30.66
44839;BME280;30576;42.098;24.876;2023-02-07T12:06:43;101272.44;;;3.73;30.32
44839;BME280;30576;42.098;24.876;2023-02-07T12:10:13;101271.78;;;4.02;31.10
44839;BME280;30576;42.098;24.876;2023-02-07T12:12:09;101259.59;;;4.02;30.05
44839;BME280;30576;42.098;24.876;2023-02-07T12:14:48;101265.56;;;3.75;30.89
44839;BME280;30576;42.098;24.876;2023-02-07T12:17:20;101252.28;;;3.69;31.72
44839;BME280;30576;42.098;24.876;2023-02-07T12:20:12;101251.91;;;3.83;32.55
44839;BME280;30576;42.098;24.876;2023-02-07T12:22:37;101259.16;;;4.14;31.12
44839;BME280;30576;42.098;24.876;2023-02-07T12:25:08;101251.91;;;4.07;31.09
44839;BME280;30576;42.098;24.876;2023-02-07T12:27:38;101245.97;;;3.87;31.14
44839;BME280;30576;42.098;24.876;2023-02-07T12:30:12;101253.72;;;4.08;31.18
44839;BME280;30576;42.098;24.876;2023-02-07T12:33:26;101266.81;;;3.85;30.79
44839;BME280;30576;42.098;24.876;2023-02-07T12:35:35;101255.13;;;3.75;30.98
44839;BME280;30576;42.098;24.876;2023-02-07T12:40:39;101258.75;;;3.79;31.28
44839;BME280;30576;42.098;24.876;2023-02-07T12:45:56;101255.47;;;3.85;32.07
44839;BME280;30576;42.098;24.876;2023-02-07T12:50:59;101252.19;;;3.66;31.38
44839;BME280;30576;42.098;24.876;2023-02-07T13:03:56;101269.25;;;3.58;32.18
44839;BME280;30576;42.098;24.876;2023-02-07T13:08:57;101274.47;;;3.81;32.26
44839;BME280;30576;42.098;24.876;2023-02-07T13:11:51;101264.16;;;3.38;31.68
44839;BME280;30576;42.098;24.876;2023-02-07T13:25:10;101266.22;;;3.92;31.02
44839;BME280;30576;42.098;24.876;2023-02-07T13:27:37;101262.50;;;3.87;31.33
44839;BME280;30576;42.098;24.876;2023-02-07T13:30:03;101260.59;;;4.06;31.80
44839;BME280;30576;42.098;24.876;2023-02-07T13:32:30;101237.03;;;4.04;31.67
44839;BME280;30576;42.098;24.876;2023-02-07T13:37:21;101264.31;;;3.88;30.32
44839;BME280;30576;42.098;24.876;2023-02-07T13:42:22;101257.13;;;3.83;31.37
44839;BME280;30576;42.098;24.876;2023-02-07T13:47:35;101258.72;;;4.02;31.14
44839;BME280;30576;42.098;24.876;2023-02-07T13:57:52;101268.66;;;3.88;30.80
44839;BME280;30576;42.098;24.876;2023-02-07T14:00:56;101269.84;;;3.51;31.06
44839;BME280;30576;42.098;24.876;2023-02-07T14:03:28;101261.25;;;3.31;31.03
44839;BME280;30576;42.098;24.876;2023-02-07T14:06:28;101265.16;;;3.42;32.29
44839;BME280;30576;42.098;24.876;2023-02-07T14:08:49;101258.22;;;3.20;31.55
44839;BME280;30576;42.098;24.876;2023-02-07T14:13:49;101261.44;;;3.14;31.42
44839;BME280;30576;42.098;24.876;2023-02-07T14:16:15;101266.34;;;3.07;32.61
44839;BME280;30576;42.098;24.876;2023-02-07T14:19:00;101258.16;;;3.18;32.26
44839;BME280;30576;42.098;24.876;2023-02-07T14:21:29;101258.69;;;3.32;32.66
44839;BME280;30576;42.098;24.876;2023-02-07T14:31:55;101260.81;;;3.43;31.36
44839;BME280;30576;42.098;24.876;2023-02-07T14:34:21;101259.41;;;3.51;32.13
44839;BME280;30576;42.098;24.876;2023-02-07T14:36:46;101263.16;;;3.57;30.89
44839;BME280;30576;42.098;24.876;2023-02-07T14:41:44;101255.31;;;3.80;32.08
44839;BME280;30576;42.098;24.876;2023-02-07T14:44:23;101259.50;;;3.76;31.07
44839;BME280;30576;42.098;24.876;2023-02-07T14:46:50;101260.19;;;3.71;31.19
44839;BME280;30576;42.098;24.876;2023-02-07T14:51:46;101265.50;;;3.51;31.70
44839;BME280;30576;42.098;24.876;2023-02-07T14:54:25;101254.28;;;3.76;32.69
44839;BME280;30576;42.098;24.876;2023-02-07T14:59:31;101265.63;;;4.01;32.23
44839;BME280;30576;42.098;24.876;2023-02-07T15:02:18;101273.28;;;3.72;32.54